sensor_id;sensor_type;location;lat;lon;timestamp;P1;durP1;ratioP1;P2;durP2;ratioP2
76894;SDS011;65855;42.030;13.078;2023-11-19T00:00:33;1.80;;;1.00;;
76894;SDS011;65855;42.030;13.078;2023-11-19T00:02:59;1.90;;;1.40;;
76894;SDS011;65855;42.030;13.078;2023-11-19T00:05:25;4.47;;;3.58;;
76894;SDS011;65855;42.030;13.078;2023-11-19T00:07:50;3.28;;;1.92;;
76894;SDS011;65855;42.030;13.078;2023-11-19T00:10:16;3.33;;;1.63;;
76894;SDS011;65855;42.030;13.078;2023-11-19T00:12:46;4.85;;;1.77;;
76894;SDS011;65855;42.030;13.078;2023-11-19T00:15:13;3.35;;;2.03;;
76894;SDS011;65855;42.030;13.078;2023-11-19T00:17:40;2.78;;;1.13;;
76894;SDS011;65855;42.030;13.078;2023-11-19T00:20:09;2.63;;;1.17;;
76894;SDS011;65855;42.030;13.078;2023-11-19T00:22:35;4.30;;;2.45;;
76894;SDS011;65855;42.030;13.078;2023-11-19T00:25:01;4.55;;;3.60;;
76894;SDS011;65855;42.030;13.078;2023-11-19T00:27:27;6.40;;;4.22;;
76894;SDS011;65855;42.030;13.078;2023-11-19T00:29:52;5.25;;;2.28;;
76894;SDS011;65855;42.030;13.078;2023-11-19T00:32:17;1.95;;;1.08;;
76894;SDS011;65855;42.030;13.078;2023-11-19T00:34:46;2.28;;;1.90;;
76894;SDS011;65855;42.030;13.078;2023-11-19T00:37:13;2.92;;;1.48;;
76894;SDS011;65855;42.030;13.078;2023-11-19T00:39:39;1.83;;;1.45;;
76894;SDS011;65855;42.030;13.078;2023-11-19T00:42:04;3.53;;;1.50;;
76894;SDS011;65855;42.030;13.078;2023-11-19T00:44:30;2.97;;;2.53;;
76894;SDS011;65855;42.030;13.078;2023-11-19T00:46:56;3.72;;;3.42;;
76894;SDS011;65855;42.030;13.078;2023-11-19T00:49:21;2.45;;;1.55;;
76894;SDS011;65855;42.030;13.078;2023-11-19T00:51:46;2.58;;;1.75;;
76894;SDS011;65855;42.030;13.078;2023-11-19T00:54:12;2.17;;;1.17;;
76894;SDS011;65855;42.030;13.078;2023-11-19T00:56:37;2.38;;;0.95;;
76894;SDS011;65855;42.030;13.078;2023-11-19T00:59:03;2.80;;;1.25;;
76894;SDS011;65855;42.030;13.078;2023-11-19T01:01:29;4.30;;;1.80;;
76894;SDS011;65855;42.030;13.078;2023-11-19T01:03:55;3.78;;;1.88;;
76894;SDS011;65855;42.030;13.078;2023-11-19T01:06:31;4.85;;;3.38;;
76894;SDS011;65855;42.030;13.078;2023-11-19T01:08:57;5.78;;;2.35;;
76894;SDS011;65855;42.030;13.078;2023-11-19T01:11:26;5.05;;;2.08;;
76894;SDS011;65855;42.030;13.078;2023-11-19T01:13:51;4.80;;;2.35;;
76894;SDS011;65855;42.030;13.078;2023-11-19T01:16:17;5.65;;;3.05;;
76894;SDS011;65855;42.030;13.078;2023-11-19T01:18:44;7.68;;;4.68;;
76894;SDS011;65855;42.030;13.078;2023-11-19T01:21:09;10.13;;;4.28;;
76894;SDS011;65855;42.030;13.078;2023-11-19T01:23:35;6.65;;;3.55;;
76894;SDS011;65855;42.030;13.078;2023-11-19T01:26:02;5.85;;;2.95;;
76894;SDS011;65855;42.030;13.078;2023-11-19T01:28:27;7.10;;;3.83;;
76894;SDS011;65855;42.030;13.078;2023-11-19T01:30:53;6.90;;;3.53;;
76894;SDS011;65855;42.030;13.078;2023-11-19T01:33:18;6.45;;;3.17;;
76894;SDS011;65855;42.030;13.078;2023-11-19T01:35:44;7.47;;;5.03;;
76894;SDS011;65855;42.030;13.078;2023-11-19T01:38:09;10.02;;;2.67;;
76894;SDS011;65855;42.030;13.078;2023-11-19T01:40:35;5.38;;;2.75;;
76894;SDS011;65855;42.030;13.078;2023-11-19T01:43:01;5.30;;;2.13;;
76894;SDS011;65855;42.030;13.078;2023-11-19T01:45:28;10.75;;;5.10;;
76894;SDS011;65855;42.030;13.078;2023-11-19T01:47:55;7.40;;;2.67;;
76894;SDS011;65855;42.030;13.078;2023-11-19T01:50:25;6.50;;;2.88;;
76894;SDS011;65855;42.030;13.078;2023-11-19T01:52:52;3.00;;;1.58;;
76894;SDS011;65855;42.030;13.078;2023-11-19T01:55:18;1.50;;;0.90;;
76894;SDS011;65855;42.030;13.078;2023-11-19T01:57:45;2.15;;;1.35;;
76894;SDS011;65855;42.030;13.078;2023-11-19T02:00:12;4.05;;;3.10;;
76894;SDS011;65855;42.030;13.078;2023-11-19T02:02:38;2.13;;;1.58;;
76894;SDS011;65855;42.030;13.078;2023-11-19T02:05:05;1.40;;;0.88;;
76894;SDS011;65855;42.030;13.078;2023-11-19T02:07:31;2.00;;;1.42;;
76894;SDS011;65855;42.030;13.078;2023-11-19T02:09:57;1.63;;;1.10;;
76894;SDS011;65855;42.030;13.078;2023-11-19T02:12:25;2.28;;;1.33;;
76894;SDS011;65855;42.030;13.078;2023-11-19T02:14:53;1.80;;;1.00;;
76894;SDS011;65855;42.030;13.078;2023-11-19T02:17:29;4.05;;;2.72;;
76894;SDS011;65855;42.030;13.078;2023-11-19T02:19:59;1.58;;;1.17;;
76894;SDS011;65855;42.030;13.078;2023-11-19T02:22:25;2.20;;;1.50;;
76894;SDS011;65855;42.030;13.078;2023-11-19T02:24:51;1.90;;;1.48;;
76894;SDS011;65855;42.030;13.078;2023-11-19T02:30:01;5.38;;;2.17;;
76894;SDS011;65855;42.030;13.078;2023-11-19T02:32:31;4.05;;;2.65;;
76894;SDS011;65855;42.030;13.078;2023-11-19T02:34:56;4.40;;;2.75;;
76894;SDS011;65855;42.030;13.078;2023-11-19T02:37:22;6.00;;;2.22;;
76894;SDS011;65855;42.030;13.078;2023-11-19T02:39:47;5.72;;;3.63;;
76894;SDS011;65855;42.030;13.078;2023-11-19T02:42:12;3.58;;;1.55;;
76894;SDS011;65855;42.030;13.078;2023-11-19T02:44:39;4.90;;;2.35;;
76894;SDS011;65855;42.030;13.078;2023-11-19T02:47:09;4.15;;;1.70;;
76894;SDS011;65855;42.030;13.078;2023-11-19T02:49:34;7.47;;;3.90;;
76894;SDS011;65855;42.030;13.078;2023-11-19T02:52:00;6.05;;;2.85;;
76894;SDS011;65855;42.030;13.078;2023-11-19T02:54:25;4.45;;;2.38;;
76894;SDS011;65855;42.030;13.078;2023-11-19T02:56:52;5.25;;;1.88;;
76894;SDS011;65855;42.030;13.078;2023-11-19T02:59:21;5.72;;;2.40;;
76894;SDS011;65855;42.030;13.078;2023-11-19T03:01:53;5.10;;;2.47;;
76894;SDS011;65855;42.030;13.078;2023-11-19T03:04:22;5.70;;;2.08;;
76894;SDS011;65855;42.030;13.078;2023-11-19T03:06:48;4.35;;;2.33;;
76894;SDS011;65855;42.030;13.078;2023-11-19T03:09:15;2.15;;;1.35;;
76894;SDS011;65855;42.030;13.078;2023-11-19T03:11:40;1.50;;;0.98;;
76894;SDS011;65855;42.030;13.078;2023-11-19T03:14:06;1.55;;;1.05;;
76894;SDS011;65855;42.030;13.078;2023-11-19T03:16:32;2.03;;;1.45;;
76894;SDS011;65855;42.030;13.078;2023-11-19T03:18:58;1.63;;;1.02;;
76894;SDS011;65855;42.030;13.078;2023-11-19T03:21:31;2.38;;;1.30;;
76894;SDS011;65855;42.030;13.078;2023-11-19T03:23:57;4.38;;;2.63;;
76894;SDS011;65855;42.030;13.078;2023-11-19T03:26:25;2.28;;;1.17;;
76894;SDS011;65855;42.030;13.078;2023-11-19T03:28:52;2.08;;;1.42;;
76894;SDS011;65855;42.030;13.078;2023-11-19T03:31:18;3.10;;;1.38;;
76894;SDS011;65855;42.030;13.078;2023-11-19T03:33:48;3.67;;;2.35;;
76894;SDS011;65855;42.030;13.078;2023-11-19T03:36:14;1.80;;;1.40;;
76894;SDS011;65855;42.030;13.078;2023-11-19T03:38:39;3.75;;;1.77;;
76894;SDS011;65855;42.030;13.078;2023-11-19T03:41:13;2.10;;;1.38;;
76894;SDS011;65855;42.030;13.078;2023-11-19T03:43:39;2.90;;;1.45;;
76894;SDS011;65855;42.030;13.078;2023-11-19T03:46:27;3.58;;;1.95;;
76894;SDS011;65855;42.030;13.078;2023-11-19T03:48:52;3.72;;;2.17;;
76894;SDS011;65855;42.030;13.078;2023-11-19T03:51:17;4.15;;;1.70;;
76894;SDS011;65855;42.030;13.078;2023-11-19T03:53:43;5.82;;;2.15;;
76894;SDS011;65855;42.030;13.078;2023-11-19T03:56:10;6.68;;;4.47;;
76894;SDS011;65855;42.030;13.078;2023-11-19T03:58:37;5.20;;;2.65;;
76894;SDS011;65855;42.030;13.078;2023-11-19T04:01:04;5.88;;;3.60;;
76894;SDS011;65855;42.030;13.078;2023-11-19T04:03:36;4.20;;;1.90;;
76894;SDS011;65855;42.030;13.078;2023-11-19T04:06:01;5.50;;;3.33;;
76894;SDS011;65855;42.030;13.078;2023-11-19T04:08:27;3.95;;;3.00;;
76894;SDS011;65855;42.030;13.078;2023-11-19T04:10:52;3.50;;;2.30;;
76894;SDS011;65855;42.030;13.078;2023-11-19T04:13:18;2.67;;;1.63;;
76894;SDS011;65855;42.030;13.078;2023-11-19T04:15:44;3.97;;;2.25;;
76894;SDS011;65855;42.030;13.078;2023-11-19T04:18:10;2.95;;;1.85;;
76894;SDS011;65855;42.030;13.078;2023-11-19T04:20:35;1.85;;;1.27;;
76894;SDS011;65855;42.030;13.078;2023-11-19T04:23:01;6.13;;;1.88;;
76894;SDS011;65855;42.030;13.078;2023-11-19T04:25:27;4.68;;;2.65;;
76894;SDS011;65855;42.030;13.078;2023-11-19T04:27:52;3.72;;;1.35;;
76894;SDS011;65855;42.030;13.078;2023-11-19T04:30:18;4.38;;;2.40;;
76894;SDS011;65855;42.030;13.078;2023-11-19T04:32:44;3.38;;;1.83;;
76894;SDS011;65855;42.030;13.078;2023-11-19T04:35:09;4.75;;;2.45;;
76894;SDS011;65855;42.030;13.078;2023-11-19T04:37:35;4.63;;;3.75;;
76894;SDS011;65855;42.030;13.078;2023-11-19T04:40:01;4.10;;;2.40;;
76894;SDS011;65855;42.030;13.078;2023-11-19T04:42:27;3.47;;;1.88;;
76894;SDS011;65855;42.030;13.078;2023-11-19T04:44:52;3.83;;;2.15;;
76894;SDS011;65855;42.030;13.078;2023-11-19T04:47:17;4.50;;;2.70;;
76894;SDS011;65855;42.030;13.078;2023-11-19T04:49:43;4.43;;;2.13;;
76894;SDS011;65855;42.030;13.078;2023-11-19T04:52:08;4.55;;;2.72;;
76894;SDS011;65855;42.030;13.078;2023-11-19T04:54:34;4.63;;;2.20;;
76894;SDS011;65855;42.030;13.078;2023-11-19T04:56:59;10.60;;;3.30;;
76894;SDS011;65855;42.030;13.078;2023-11-19T04:59:25;4.28;;;2.13;;
76894;SDS011;65855;42.030;13.078;2023-11-19T05:01:50;2.85;;;1.63;;
76894;SDS011;65855;42.030;13.078;2023-11-19T05:04:15;4.47;;;2.10;;
76894;SDS011;65855;42.030;13.078;2023-11-19T05:06:41;3.97;;;1.40;;
76894;SDS011;65855;42.030;13.078;2023-11-19T05:09:07;3.75;;;1.63;;
76894;SDS011;65855;42.030;13.078;2023-11-19T05:11:35;6.57;;;1.25;;
76894;SDS011;65855;42.030;13.078;2023-11-19T05:14:04;3.80;;;3.15;;
76894;SDS011;65855;42.030;13.078;2023-11-19T05:16:30;4.70;;;2.17;;
76894;SDS011;65855;42.030;13.078;2023-11-19T05:18:56;3.95;;;2.03;;
76894;SDS011;65855;42.030;13.078;2023-11-19T05:21:21;3.13;;;1.70;;
76894;SDS011;65855;42.030;13.078;2023-11-19T05:23:46;3.22;;;1.58;;
76894;SDS011;65855;42.030;13.078;2023-11-19T05:26:19;3.70;;;2.17;;
76894;SDS011;65855;42.030;13.078;2023-11-19T05:28:45;2.72;;;1.60;;
76894;SDS011;65855;42.030;13.078;2023-11-19T05:31:11;4.15;;;2.05;;
76894;SDS011;65855;42.030;13.078;2023-11-19T05:33:36;2.17;;;1.40;;
76894;SDS011;65855;42.030;13.078;2023-11-19T05:36:02;4.40;;;1.77;;
76894;SDS011;65855;42.030;13.078;2023-11-19T05:38:29;2.75;;;1.67;;
76894;SDS011;65855;42.030;13.078;2023-11-19T05:40:55;3.45;;;2.03;;
76894;SDS011;65855;42.030;13.078;2023-11-19T05:43:20;4.28;;;2.60;;
76894;SDS011;65855;42.030;13.078;2023-11-19T05:45:46;4.35;;;2.15;;
76894;SDS011;65855;42.030;13.078;2023-11-19T05:48:12;5.72;;;4.20;;
76894;SDS011;65855;42.030;13.078;2023-11-19T05:50:37;5.35;;;2.15;;
76894;SDS011;65855;42.030;13.078;2023-11-19T05:53:03;4.88;;;2.67;;
76894;SDS011;65855;42.030;13.078;2023-11-19T05:55:33;4.22;;;2.35;;
76894;SDS011;65855;42.030;13.078;2023-11-19T05:57:59;3.35;;;2.05;;
76894;SDS011;65855;42.030;13.078;2023-11-19T06:00:25;5.43;;;2.50;;
76894;SDS011;65855;42.030;13.078;2023-11-19T06:02:51;5.30;;;4.53;;
76894;SDS011;65855;42.030;13.078;2023-11-19T06:05:17;2.78;;;2.10;;
76894;SDS011;65855;42.030;13.078;2023-11-19T06:07:43;2.92;;;1.88;;
76894;SDS011;65855;42.030;13.078;2023-11-19T06:10:09;4.28;;;1.83;;
76894;SDS011;65855;42.030;13.078;2023-11-19T06:12:35;2.53;;;1.40;;
76894;SDS011;65855;42.030;13.078;2023-11-19T06:15:06;4.15;;;1.63;;
76894;SDS011;65855;42.030;13.078;2023-11-19T06:17:33;2.08;;;1.45;;
76894;SDS011;65855;42.030;13.078;2023-11-19T06:19:59;2.72;;;2.00;;
76894;SDS011;65855;42.030;13.078;2023-11-19T06:22:24;2.92;;;1.83;;
76894;SDS011;65855;42.030;13.078;2023-11-19T06:24:50;3.17;;;1.17;;
76894;SDS011;65855;42.030;13.078;2023-11-19T06:27:15;4.03;;;3.20;;
76894;SDS011;65855;42.030;13.078;2023-11-19T06:29:40;3.00;;;1.50;;
76894;SDS011;65855;42.030;13.078;2023-11-19T06:32:06;2.95;;;1.95;;
76894;SDS011;65855;42.030;13.078;2023-11-19T06:34:33;6.38;;;3.30;;
76894;SDS011;65855;42.030;13.078;2023-11-19T06:36:59;8.77;;;2.63;;
76894;SDS011;65855;42.030;13.078;2023-11-19T06:39:24;7.57;;;2.17;;
76894;SDS011;65855;42.030;13.078;2023-11-19T06:41:50;3.47;;;2.30;;
76894;SDS011;65855;42.030;13.078;2023-11-19T06:44:15;2.97;;;2.28;;
76894;SDS011;65855;42.030;13.078;2023-11-19T06:46:41;1.80;;;1.00;;
76894;SDS011;65855;42.030;13.078;2023-11-19T06:49:06;3.28;;;2.35;;
76894;SDS011;65855;42.030;13.078;2023-11-19T06:51:33;4.30;;;3.35;;
76894;SDS011;65855;42.030;13.078;2023-11-19T06:53:59;2.30;;;1.25;;
76894;SDS011;65855;42.030;13.078;2023-11-19T06:56:24;2.35;;;1.48;;
76894;SDS011;65855;42.030;13.078;2023-11-19T06:58:50;4.90;;;1.52;;
76894;SDS011;65855;42.030;13.078;2023-11-19T07:01:16;1.35;;;0.85;;
76894;SDS011;65855;42.030;13.078;2023-11-19T07:03:44;2.15;;;1.63;;
76894;SDS011;65855;42.030;13.078;2023-11-19T07:06:10;3.17;;;2.03;;
76894;SDS011;65855;42.030;13.078;2023-11-19T07:08:35;9.30;;;0.98;;
76894;SDS011;65855;42.030;13.078;2023-11-19T07:11:01;1.58;;;1.10;;
76894;SDS011;65855;42.030;13.078;2023-11-19T07:13:28;2.78;;;1.75;;
76894;SDS011;65855;42.030;13.078;2023-11-19T07:15:55;2.15;;;1.05;;
76894;SDS011;65855;42.030;13.078;2023-11-19T07:18:21;3.08;;;1.80;;
76894;SDS011;65855;42.030;13.078;2023-11-19T07:20:47;3.35;;;2.13;;
76894;SDS011;65855;42.030;13.078;2023-11-19T07:23:13;2.90;;;0.98;;
76894;SDS011;65855;42.030;13.078;2023-11-19T07:25:42;3.55;;;1.67;;
76894;SDS011;65855;42.030;13.078;2023-11-19T07:28:08;3.92;;;1.30;;
76894;SDS011;65855;42.030;13.078;2023-11-19T07:30:35;4.07;;;1.45;;
76894;SDS011;65855;42.030;13.078;2023-11-19T07:33:00;6.90;;;1.83;;
76894;SDS011;65855;42.030;13.078;2023-11-19T07:35:25;4.03;;;1.75;;
76894;SDS011;65855;42.030;13.078;2023-11-19T07:37:51;4.47;;;1.88;;
76894;SDS011;65855;42.030;13.078;2023-11-19T07:40:16;4.70;;;2.67;;
76894;SDS011;65855;42.030;13.078;2023-11-19T07:42:42;4.28;;;1.48;;
76894;SDS011;65855;42.030;13.078;2023-11-19T07:45:07;5.55;;;1.80;;
76894;SDS011;65855;42.030;13.078;2023-11-19T07:47:33;6.07;;;1.85;;
76894;SDS011;65855;42.030;13.078;2023-11-19T07:49:59;4.10;;;1.58;;
76894;SDS011;65855;42.030;13.078;2023-11-19T07:52:24;4.35;;;1.85;;
76894;SDS011;65855;42.030;13.078;2023-11-19T07:54:50;5.30;;;1.52;;
76894;SDS011;65855;42.030;13.078;2023-11-19T07:57:15;11.43;;;5.95;;
76894;SDS011;65855;42.030;13.078;2023-11-19T07:59:41;19.35;;;8.20;;
76894;SDS011;65855;42.030;13.078;2023-11-19T08:02:06;16.58;;;7.55;;
76894;SDS011;65855;42.030;13.078;2023-11-19T08:04:31;17.83;;;7.53;;
76894;SDS011;65855;42.030;13.078;2023-11-19T08:06:57;10.80;;;3.75;;
76894;SDS011;65855;42.030;13.078;2023-11-19T08:09:22;6.82;;;2.47;;
76894;SDS011;65855;42.030;13.078;2023-11-19T08:11:48;8.20;;;2.50;;
76894;SDS011;65855;42.030;13.078;2023-11-19T08:14:13;4.97;;;2.53;;
76894;SDS011;65855;42.030;13.078;2023-11-19T08:16:39;7.28;;;1.65;;
76894;SDS011;65855;42.030;13.078;2023-11-19T08:19:05;3.90;;;1.20;;
76894;SDS011;65855;42.030;13.078;2023-11-19T08:21:30;5.65;;;1.50;;
76894;SDS011;65855;42.030;13.078;2023-11-19T08:23:56;3.60;;;1.33;;
76894;SDS011;65855;42.030;13.078;2023-11-19T08:26:21;3.78;;;1.20;;
76894;SDS011;65855;42.030;13.078;2023-11-19T08:28:47;3.67;;;1.15;;
76894;SDS011;65855;42.030;13.078;2023-11-19T08:31:12;4.70;;;1.27;;
76894;SDS011;65855;42.030;13.078;2023-11-19T08:33:38;3.50;;;1.33;;
76894;SDS011;65855;42.030;13.078;2023-11-19T08:36:03;3.92;;;1.15;;
76894;SDS011;65855;42.030;13.078;2023-11-19T08:38:29;4.57;;;1.55;;
76894;SDS011;65855;42.030;13.078;2023-11-19T08:40:55;4.38;;;0.90;;
76894;SDS011;65855;42.030;13.078;2023-11-19T08:43:27;3.47;;;1.33;;
76894;SDS011;65855;42.030;13.078;2023-11-19T08:45:53;4.13;;;1.20;;
76894;SDS011;65855;42.030;13.078;2023-11-19T08:48:18;4.90;;;1.20;;
76894;SDS011;65855;42.030;13.078;2023-11-19T08:50:44;4.00;;;1.35;;
76894;SDS011;65855;42.030;13.078;2023-11-19T08:53:09;6.72;;;2.10;;
76894;SDS011;65855;42.030;13.078;2023-11-19T08:55:34;3.90;;;1.27;;
76894;SDS011;65855;42.030;13.078;2023-11-19T08:58:00;6.50;;;1.98;;
76894;SDS011;65855;42.030;13.078;2023-11-19T09:00:26;4.70;;;1.65;;
76894;SDS011;65855;42.030;13.078;2023-11-19T09:02:51;4.97;;;1.42;;
76894;SDS011;65855;42.030;13.078;2023-11-19T09:05:17;4.03;;;0.90;;
76894;SDS011;65855;42.030;13.078;2023-11-19T09:07:42;3.63;;;1.55;;
76894;SDS011;65855;42.030;13.078;2023-11-19T09:10:07;3.67;;;0.90;;
76894;SDS011;65855;42.030;13.078;2023-11-19T09:12:33;4.45;;;1.90;;
76894;SDS011;65855;42.030;13.078;2023-11-19T09:15:00;9.48;;;3.58;;
76894;SDS011;65855;42.030;13.078;2023-11-19T09:17:25;6.85;;;2.42;;
76894;SDS011;65855;42.030;13.078;2023-11-19T09:19:51;5.97;;;2.25;;
76894;SDS011;65855;42.030;13.078;2023-11-19T09:22:16;7.20;;;3.10;;
76894;SDS011;65855;42.030;13.078;2023-11-19T09:24:41;4.57;;;1.58;;
76894;SDS011;65855;42.030;13.078;2023-11-19T09:27:09;4.38;;;1.30;;
76894;SDS011;65855;42.030;13.078;2023-11-19T09:29:34;4.40;;;1.48;;
76894;SDS011;65855;42.030;13.078;2023-11-19T09:32:00;4.55;;;1.27;;
76894;SDS011;65855;42.030;13.078;2023-11-19T09:34:26;3.50;;;1.02;;
76894;SDS011;65855;42.030;13.078;2023-11-19T09:36:51;2.20;;;0.85;;
76894;SDS011;65855;42.030;13.078;2023-11-19T09:39:17;2.90;;;0.73;;
76894;SDS011;65855;42.030;13.078;2023-11-19T09:41:43;3.33;;;0.85;;
76894;SDS011;65855;42.030;13.078;2023-11-19T09:44:10;2.28;;;0.60;;
76894;SDS011;65855;42.030;13.078;2023-11-19T09:46:36;3.72;;;0.68;;
76894;SDS011;65855;42.030;13.078;2023-11-19T09:49:04;4.13;;;0.80;;
76894;SDS011;65855;42.030;13.078;2023-11-19T09:51:33;3.65;;;1.17;;
76894;SDS011;65855;42.030;13.078;2023-11-19T09:53:59;3.40;;;0.50;;
76894;SDS011;65855;42.030;13.078;2023-11-19T09:56:25;2.72;;;0.55;;
76894;SDS011;65855;42.030;13.078;2023-11-19T09:58:54;3.25;;;0.60;;
76894;SDS011;65855;42.030;13.078;2023-11-19T10:01:20;4.35;;;0.50;;
76894;SDS011;65855;42.030;13.078;2023-11-19T10:03:46;3.25;;;0.88;;
76894;SDS011;65855;42.030;13.078;2023-11-19T10:06:12;4.07;;;1.17;;
76894;SDS011;65855;42.030;13.078;2023-11-19T10:08:41;3.05;;;0.50;;
76894;SDS011;65855;42.030;13.078;2023-11-19T10:11:07;3.47;;;0.70;;
76894;SDS011;65855;42.030;13.078;2023-11-19T10:13:36;3.25;;;0.70;;
76894;SDS011;65855;42.030;13.078;2023-11-19T10:18:36;2.53;;;0.63;;
76894;SDS011;65855;42.030;13.078;2023-11-19T10:21:03;3.22;;;0.60;;
76894;SDS011;65855;42.030;13.078;2023-11-19T10:23:30;3.53;;;0.68;;
76894;SDS011;65855;42.030;13.078;2023-11-19T10:26:02;3.33;;;0.57;;
76894;SDS011;65855;42.030;13.078;2023-11-19T10:28:37;3.92;;;0.93;;
76894;SDS011;65855;42.030;13.078;2023-11-19T10:31:04;4.30;;;1.13;;
76894;SDS011;65855;42.030;13.078;2023-11-19T10:33:30;3.33;;;0.65;;
76894;SDS011;65855;42.030;13.078;2023-11-19T10:35:56;3.65;;;0.70;;
76894;SDS011;65855;42.030;13.078;2023-11-19T10:38:23;5.40;;;0.70;;
76894;SDS011;65855;42.030;13.078;2023-11-19T10:40:50;3.53;;;0.63;;
76894;SDS011;65855;42.030;13.078;2023-11-19T10:43:16;4.22;;;0.80;;
76894;SDS011;65855;42.030;13.078;2023-11-19T10:45:44;3.28;;;0.70;;
76894;SDS011;65855;42.030;13.078;2023-11-19T10:48:10;6.75;;;0.80;;
76894;SDS011;65855;42.030;13.078;2023-11-19T10:50:38;5.13;;;0.80;;
76894;SDS011;65855;42.030;13.078;2023-11-19T10:53:05;4.22;;;0.80;;
76894;SDS011;65855;42.030;13.078;2023-11-19T10:55:32;5.47;;;1.00;;
76894;SDS011;65855;42.030;13.078;2023-11-19T10:58:04;3.90;;;0.55;;
76894;SDS011;65855;42.030;13.078;2023-11-19T11:00:46;5.05;;;1.73;;
76894;SDS011;65855;42.030;13.078;2023-11-19T11:05:40;4.55;;;0.95;;
76894;SDS011;65855;42.030;13.078;2023-11-19T11:08:07;5.10;;;0.82;;
76894;SDS011;65855;42.030;13.078;2023-11-19T11:10:35;4.32;;;0.80;;
76894;SDS011;65855;42.030;13.078;2023-11-19T11:13:06;3.42;;;1.15;;
76894;SDS011;65855;42.030;13.078;2023-11-19T11:15:32;4.80;;;1.00;;
76894;SDS011;65855;42.030;13.078;2023-11-19T11:18:00;3.75;;;0.57;;
76894;SDS011;65855;42.030;13.078;2023-11-19T11:20:27;3.90;;;0.95;;
76894;SDS011;65855;42.030;13.078;2023-11-19T11:31:26;5.75;;;1.15;;
76894;SDS011;65855;42.030;13.078;2023-11-19T11:34:10;4.45;;;1.30;;
76894;SDS011;65855;42.030;13.078;2023-11-19T11:39:35;5.72;;;1.25;;
76894;SDS011;65855;42.030;13.078;2023-11-19T11:50:14;6.63;;;1.13;;
76894;SDS011;65855;42.030;13.078;2023-11-19T11:55:24;2.75;;;0.65;;
76894;SDS011;65855;42.030;13.078;2023-11-19T11:57:50;4.70;;;1.40;;
76894;SDS011;65855;42.030;13.078;2023-11-19T12:00:22;4.28;;;0.82;;
76894;SDS011;65855;42.030;13.078;2023-11-19T12:02:58;8.13;;;1.77;;
76894;SDS011;65855;42.030;13.078;2023-11-19T12:05:25;6.60;;;1.65;;
76894;SDS011;65855;42.030;13.078;2023-11-19T12:07:54;3.80;;;0.95;;
76894;SDS011;65855;42.030;13.078;2023-11-19T12:10:20;3.72;;;1.23;;
76894;SDS011;65855;42.030;13.078;2023-11-19T12:12:47;4.18;;;1.30;;
76894;SDS011;65855;42.030;13.078;2023-11-19T12:15:12;4.07;;;0.88;;
76894;SDS011;65855;42.030;13.078;2023-11-19T12:17:57;5.55;;;1.30;;
76894;SDS011;65855;42.030;13.078;2023-11-19T12:22:49;5.25;;;1.92;;
76894;SDS011;65855;42.030;13.078;2023-11-19T12:25:16;4.60;;;1.35;;
76894;SDS011;65855;42.030;13.078;2023-11-19T12:30:12;3.40;;;0.93;;
76894;SDS011;65855;42.030;13.078;2023-11-19T12:32:41;3.05;;;0.63;;
76894;SDS011;65855;42.030;13.078;2023-11-19T12:35:08;4.63;;;0.95;;
76894;SDS011;65855;42.030;13.078;2023-11-19T12:37:50;5.40;;;1.48;;
76894;SDS011;65855;42.030;13.078;2023-11-19T12:42:44;5.30;;;1.92;;
76894;SDS011;65855;42.030;13.078;2023-11-19T12:45:10;6.82;;;1.88;;
76894;SDS011;65855;42.030;13.078;2023-11-19T12:47:36;7.68;;;2.08;;
76894;SDS011;65855;42.030;13.078;2023-11-19T12:50:02;8.88;;;2.38;;
76894;SDS011;65855;42.030;13.078;2023-11-19T12:52:28;8.13;;;1.77;;
76894;SDS011;65855;42.030;13.078;2023-11-19T12:54:55;5.75;;;1.90;;
76894;SDS011;65855;42.030;13.078;2023-11-19T12:57:20;3.60;;;1.52;;
76894;SDS011;65855;42.030;13.078;2023-11-19T12:59:55;3.72;;;1.17;;
76894;SDS011;65855;42.030;13.078;2023-11-19T13:02:23;2.95;;;1.02;;
76894;SDS011;65855;42.030;13.078;2023-11-19T13:05:28;5.28;;;1.45;;
76894;SDS011;65855;42.030;13.078;2023-11-19T13:08:07;3.58;;;1.27;;
76894;SDS011;65855;42.030;13.078;2023-11-19T13:10:34;10.93;;;3.80;;
76894;SDS011;65855;42.030;13.078;2023-11-19T13:13:15;6.60;;;1.42;;
76894;SDS011;65855;42.030;13.078;2023-11-19T13:15:41;8.32;;;1.73;;
76894;SDS011;65855;42.030;13.078;2023-11-19T13:18:08;4.35;;;1.20;;
76894;SDS011;65855;42.030;13.078;2023-11-19T13:20:33;3.50;;;0.95;;
76894;SDS011;65855;42.030;13.078;2023-11-19T13:22:59;4.22;;;1.13;;
76894;SDS011;65855;42.030;13.078;2023-11-19T13:25:27;4.35;;;1.50;;
76894;SDS011;65855;42.030;13.078;2023-11-19T13:27:53;4.88;;;1.50;;
76894;SDS011;65855;42.030;13.078;2023-11-19T13:30:19;4.47;;;1.48;;
76894;SDS011;65855;42.030;13.078;2023-11-19T13:32:45;5.43;;;2.80;;
76894;SDS011;65855;42.030;13.078;2023-11-19T13:35:11;4.05;;;1.13;;
76894;SDS011;65855;42.030;13.078;2023-11-19T13:37:37;2.28;;;0.85;;
76894;SDS011;65855;42.030;13.078;2023-11-19T13:40:03;3.58;;;1.17;;
76894;SDS011;65855;42.030;13.078;2023-11-19T13:42:30;4.18;;;1.17;;
76894;SDS011;65855;42.030;13.078;2023-11-19T13:44:55;3.20;;;0.85;;
76894;SDS011;65855;42.030;13.078;2023-11-19T13:47:21;5.38;;;1.35;;
76894;SDS011;65855;42.030;13.078;2023-11-19T13:49:47;3.63;;;0.80;;
76894;SDS011;65855;42.030;13.078;2023-11-19T13:52:12;2.60;;;1.15;;
76894;SDS011;65855;42.030;13.078;2023-11-19T13:54:37;2.65;;;0.70;;
76894;SDS011;65855;42.030;13.078;2023-11-19T13:57:03;2.35;;;0.93;;
76894;SDS011;65855;42.030;13.078;2023-11-19T13:59:29;4.47;;;1.13;;
76894;SDS011;65855;42.030;13.078;2023-11-19T14:01:56;3.35;;;0.82;;
76894;SDS011;65855;42.030;13.078;2023-11-19T14:04:21;3.22;;;0.80;;
76894;SDS011;65855;42.030;13.078;2023-11-19T14:06:47;4.72;;;0.90;;
76894;SDS011;65855;42.030;13.078;2023-11-19T14:09:12;4.10;;;1.67;;
76894;SDS011;65855;42.030;13.078;2023-11-19T14:11:38;5.15;;;1.50;;
76894;SDS011;65855;42.030;13.078;2023-11-19T14:14:03;6.40;;;1.52;;
76894;SDS011;65855;42.030;13.078;2023-11-19T14:16:29;4.65;;;1.55;;
76894;SDS011;65855;42.030;13.078;2023-11-19T14:18:54;7.60;;;2.05;;
76894;SDS011;65855;42.030;13.078;2023-11-19T14:21:20;6.35;;;1.92;;
76894;SDS011;65855;42.030;13.078;2023-11-19T14:23:45;5.95;;;1.80;;
76894;SDS011;65855;42.030;13.078;2023-11-19T14:26:11;7.28;;;2.17;;
76894;SDS011;65855;42.030;13.078;2023-11-19T14:28:37;4.72;;;1.83;;
76894;SDS011;65855;42.030;13.078;2023-11-19T14:31:03;7.10;;;1.70;;
76894;SDS011;65855;42.030;13.078;2023-11-19T14:33:29;5.78;;;1.80;;
76894;SDS011;65855;42.030;13.078;2023-11-19T14:35:54;3.88;;;1.40;;
76894;SDS011;65855;42.030;13.078;2023-11-19T14:38:20;5.03;;;1.40;;
76894;SDS011;65855;42.030;13.078;2023-11-19T14:40:45;4.50;;;1.25;;
76894;SDS011;65855;42.030;13.078;2023-11-19T14:43:11;5.00;;;1.50;;
76894;SDS011;65855;42.030;13.078;2023-11-19T14:45:36;4.50;;;2.45;;
76894;SDS011;65855;42.030;13.078;2023-11-19T14:48:01;4.20;;;1.05;;
76894;SDS011;65855;42.030;13.078;2023-11-19T14:50:27;4.82;;;1.25;;
76894;SDS011;65855;42.030;13.078;2023-11-19T14:52:53;4.03;;;1.38;;
76894;SDS011;65855;42.030;13.078;2023-11-19T14:55:18;4.40;;;1.35;;
76894;SDS011;65855;42.030;13.078;2023-11-19T14:57:44;4.85;;;1.98;;
76894;SDS011;65855;42.030;13.078;2023-11-19T15:00:10;5.05;;;1.67;;
76894;SDS011;65855;42.030;13.078;2023-11-19T15:02:41;5.72;;;1.70;;
76894;SDS011;65855;42.030;13.078;2023-11-19T15:05:07;4.72;;;1.63;;
76894;SDS011;65855;42.030;13.078;2023-11-19T15:07:36;5.57;;;1.23;;